sensor_id;sensor_type;location;lat;lon;timestamp;pressure;altitude;pressure_sealevel;temperature;humidity
68197;BME280;55019;49.382;11.358;2023-05-09T00:01:14;97023.09;;;13.48;62.43
68197;BME280;55019;49.382;11.358;2023-05-09T00:03:40;97031.22;;;13.45;62.73
68197;BME280;55019;49.382;11.358;2023-05-09T00:06:09;97023.44;;;13.45;62.62
68197;BME280;55019;49.382;11.358;2023-05-09T00:08:36;97028.91;;;13.50;62.64
68197;BME280;55019;49.382;11.358;2023-05-09T00:11:02;97026.03;;;13.45;62.29
68197;BME280;55019;49.382;11.358;2023-05-09T00:13:28;97021.50;;;13.39;62.28
68197;BME280;55019;49.382;11.358;2023-05-09T00:15:54;97022.94;;;13.49;62.11
68197;BME280;55019;49.382;11.358;2023-05-09T00:18:22;97028.91;;;13.50;62.91
68197;BME280;55019;49.382;11.358;2023-05-09T00:20:49;97024.06;;;13.47;62.13
68197;BME280;55019;49.382;11.358;2023-05-09T00:23:15;97018.38;;;13.51;62.00
68197;BME280;55019;49.382;11.358;2023-05-09T00:25:41;97025.72;;;13.40;63.22
68197;BME280;55019;49.382;11.358;2023-05-09T00:28:07;97022.78;;;13.43;64.30
68197;BME280;55019;49.382;11.358;2023-05-09T00:30:34;97016.66;;;13.36;64.25
68197;BME280;55019;49.382;11.358;2023-05-09T00:32:59;97029.69;;;13.28;65.42
68197;BME280;55019;49.382;11.358;2023-05-09T00:35:25;97028.44;;;13.16;65.08
68197;BME280;55019;49.382;11.358;2023-05-09T00:37:51;97021.09;;;13.19;65.55
68197;BME280;55019;49.382;11.358;2023-05-09T00:40:17;97012.00;;;13.23;65.61
68197;BME280;55019;49.382;11.358;2023-05-09T00:42:43;97009.38;;;12.93;65.09
68197;BME280;55019;49.382;11.358;2023-05-09T00:45:09;97009.03;;;12.96;66.50
68197;BME280;55019;49.382;11.358;2023-05-09T00:47:35;97010.28;;;13.16;66.34
68197;BME280;55019;49.382;11.358;2023-05-09T00:50:01;97007.03;;;13.14;65.64
68197;BME280;55019;49.382;11.358;2023-05-09T00:52:27;96998.47;;;13.05;67.07
68197;BME280;55019;49.382;11.358;2023-05-09T00:54:53;96998.28;;;13.15;65.48
68197;BME280;55019;49.382;11.358;2023-05-09T00:57:20;96997.13;;;13.17;64.97
68197;BME280;55019;49.382;11.358;2023-05-09T00:59:47;96993.88;;;13.15;64.69
68197;BME280;55019;49.382;11.358;2023-05-09T01:02:14;96984.53;;;13.06;65.57
68197;BME280;55019;49.382;11.358;2023-05-09T01:04:41;96988.84;;;13.22;64.78
68197;BME280;55019;49.382;11.358;2023-05-09T01:12:31;96977.22;;;13.10;65.92
68197;BME280;55019;49.382;11.358;2023-05-09T01:15:11;96986.63;;;13.11;65.05
68197;BME280;55019;49.382;11.358;2023-05-09T01:18:25;96973.34;;;13.06;65.78
68197;BME280;55019;49.382;11.358;2023-05-09T01:21:01;96980.16;;;13.07;65.19
68197;BME280;55019;49.382;11.358;2023-05-09T01:27:29;96976.28;;;12.95;66.54
68197;BME280;55019;49.382;11.358;2023-05-09T01:29:58;96980.94;;;13.07;66.69
68197;BME280;55019;49.382;11.358;2023-05-09T01:32:27;96968.53;;;12.79;67.85
68197;BME280;55019;49.382;11.358;2023-05-09T01:34:55;96974.34;;;12.89;67.74
68197;BME280;55019;49.382;11.358;2023-05-09T01:37:35;96978.38;;;12.99;66.66
68197;BME280;55019;49.382;11.358;2023-05-09T01:40:07;96976.28;;;12.95;67.67
68197;BME280;55019;49.382;11.358;2023-05-09T01:42:47;96971.75;;;12.89;67.40
68197;BME280;55019;49.382;11.358;2023-05-09T01:45:14;96970.44;;;13.01;67.58
68197;BME280;55019;49.382;11.358;2023-05-09T01:47:41;96965.94;;;12.79;66.95
68197;BME280;55019;49.382;11.358;2023-05-09T01:50:10;96972.81;;;12.64;67.05
68197;BME280;55019;49.382;11.358;2023-05-09T01:52:37;96973.25;;;12.68;67.56
68197;BME280;55019;49.382;11.358;2023-05-09T01:55:05;96976.84;;;12.67;68.53
68197;BME280;55019;49.382;11.358;2023-05-09T01:57:31;96975.06;;;12.67;67.70
68197;BME280;55019;49.382;11.358;2023-05-09T01:59:58;96970.84;;;12.66;67.65
68197;BME280;55019;49.382;11.358;2023-05-09T02:02:27;96970.69;;;12.76;67.26
68197;BME280;55019;49.382;11.358;2023-05-09T02:04:56;96965.00;;;12.72;67.65
68197;BME280;55019;49.382;11.358;2023-05-09T02:07:23;96961.91;;;12.77;68.20
68197;BME280;55019;49.382;11.358;2023-05-09T02:09:54;96970.56;;;12.53;69.37
68197;BME280;55019;49.382;11.358;2023-05-09T02:12:22;96959.22;;;12.54;69.53
68197;BME280;55019;49.382;11.358;2023-05-09T02:14:49;96956.97;;;12.51;70.33
68197;BME280;55019;49.382;11.358;2023-05-09T02:17:15;96960.19;;;12.61;70.24
68197;BME280;55019;49.382;11.358;2023-05-09T02:19:44;96962.81;;;12.37;70.21
68197;BME280;55019;49.382;11.358;2023-05-09T02:22:12;96962.50;;;12.32;70.51
68197;BME280;55019;49.382;11.358;2023-05-09T02:24:39;96950.81;;;12.44;69.94
68197;BME280;55019;49.382;11.358;2023-05-09T02:27:05;96953.75;;;12.33;70.08
68197;BME280;55019;49.382;11.358;2023-05-09T02:29:39;96963.13;;;12.42;71.78
68197;BME280;55019;49.382;11.358;2023-05-09T02:32:08;96958.59;;;12.52;71.69
68197;BME280;55019;49.382;11.358;2023-05-09T02:34:36;96955.00;;;12.61;71.32
68197;BME280;55019;49.382;11.358;2023-05-09T02:37:03;96962.59;;;12.55;71.08
68197;BME280;55019;49.382;11.358;2023-05-09T02:39:30;96955.84;;;12.38;70.18
68197;BME280;55019;49.382;11.358;2023-05-09T02:41:55;96956.34;;;12.33;70.74
68197;BME280;55019;49.382;11.358;2023-05-09T02:44:21;96946.94;;;12.40;70.96
68197;BME280;55019;49.382;11.358;2023-05-09T02:46:47;96957.94;;;12.42;71.64
68197;BME280;55019;49.382;11.358;2023-05-09T02:49:13;96956.00;;;12.52;70.22
68197;BME280;55019;49.382;11.358;2023-05-09T02:51:39;96944.66;;;12.53;70.76
68197;BME280;55019;49.382;11.358;2023-05-09T02:54:05;96947.38;;;12.52;71.01
68197;BME280;55019;49.382;11.358;2023-05-09T02:56:30;96937.19;;;12.58;71.09
68197;BME280;55019;49.382;11.358;2023-05-09T02:58:56;96938.91;;;12.66;70.61
68197;BME280;55019;49.382;11.358;2023-05-09T03:01:22;96933.28;;;12.62;71.05
68197;BME280;55019;49.382;11.358;2023-05-09T03:03:47;96926.81;;;12.58;71.15
68197;BME280;55019;49.382;11.358;2023-05-09T03:06:14;96931.47;;;12.63;71.07
68197;BME280;55019;49.382;11.358;2023-05-09T03:08:40;96938.19;;;12.41;72.13
68197;BME280;55019;49.382;11.358;2023-05-09T03:11:06;96929.59;;;12.49;72.24
68197;BME280;55019;49.382;11.358;2023-05-09T03:13:32;96928.94;;;12.47;71.81
68197;BME280;55019;49.382;11.358;2023-05-09T03:15:58;96937.25;;;12.26;72.11
68197;BME280;55019;49.382;11.358;2023-05-09T03:18:23;96936.91;;;12.29;72.16
68197;BME280;55019;49.382;11.358;2023-05-09T03:20:50;96936.94;;;12.13;71.98
68197;BME280;55019;49.382;11.358;2023-05-09T03:23:16;96927.53;;;12.20;71.67
68197;BME280;55019;49.382;11.358;2023-05-09T03:25:41;96925.94;;;11.87;71.80
68197;BME280;55019;49.382;11.358;2023-05-09T03:28:07;96924.97;;;11.96;72.18
68197;BME280;55019;49.382;11.358;2023-05-09T03:30:32;96930.16;;;11.88;72.16
68197;BME280;55019;49.382;11.358;2023-05-09T03:32:59;96930.47;;;11.77;72.59
68197;BME280;55019;49.382;11.358;2023-05-09T03:35:25;96934.69;;;11.78;74.34
68197;BME280;55019;49.382;11.358;2023-05-09T03:37:53;96933.56;;;11.89;72.14
68197;BME280;55019;49.382;11.358;2023-05-09T03:40:18;96929.03;;;11.99;73.54
68197;BME280;55019;49.382;11.358;2023-05-09T03:43:01;96931.47;;;12.00;72.83
68197;BME280;55019;49.382;11.358;2023-05-09T03:45:27;96927.91;;;12.01;72.61
68197;BME280;55019;49.382;11.358;2023-05-09T03:47:52;96921.09;;;11.68;72.56
68197;BME280;55019;49.382;11.358;2023-05-09T03:50:18;96923.66;;;11.92;73.25
68197;BME280;55019;49.382;11.358;2023-05-09T03:52:44;96922.72;;;11.69;71.66
68197;BME280;55019;49.382;11.358;2023-05-09T03:55:11;96923.69;;;11.60;72.38
68197;BME280;55019;49.382;11.358;2023-05-09T03:57:37;96923.47;;;11.54;72.86
68197;BME280;55019;49.382;11.358;2023-05-09T04:00:03;96930.00;;;11.82;72.70
68197;BME280;55019;49.382;11.358;2023-05-09T04:02:40;96928.22;;;11.58;72.68
68197;BME280;55019;49.382;11.358;2023-05-09T04:05:09;96931.13;;;11.87;72.92
68197;BME280;55019;49.382;11.358;2023-05-09T04:07:36;96938.41;;;11.76;72.21
68197;BME280;55019;49.382;11.358;2023-05-09T04:10:03;96933.72;;;11.87;72.37
68197;BME280;55019;49.382;11.358;2023-05-09T04:12:29;96930.78;;;11.98;72.01
68197;BME280;55019;49.382;11.358;2023-05-09T04:14:55;96937.25;;;11.94;71.07
68197;BME280;55019;49.382;11.358;2023-05-09T04:17:23;96933.38;;;12.14;71.21
68197;BME280;55019;49.382;11.358;2023-05-09T04:19:49;96938.09;;;11.95;70.95
68197;BME280;55019;49.382;11.358;2023-05-09T04:22:15;96939.22;;;11.60;71.69
68197;BME280;55019;49.382;11.358;2023-05-09T04:24:40;96935.00;;;11.67;71.89
68197;BME280;55019;49.382;11.358;2023-05-09T04:27:07;96932.09;;;11.62;72.41
68197;BME280;55019;49.382;11.358;2023-05-09T04:29:34;96930.94;;;11.57;73.12
68197;BME280;55019;49.382;11.358;2023-05-09T04:32:01;96931.78;;;11.81;73.58
68197;BME280;55019;49.382;11.358;2023-05-09T04:34:27;96932.59;;;11.82;72.48
68197;BME280;55019;49.382;11.358;2023-05-09T04:36:57;96926.44;;;11.99;72.40
68197;BME280;55019;49.382;11.358;2023-05-09T04:39:24;96925.94;;;11.95;71.79
68197;BME280;55019;49.382;11.358;2023-05-09T04:41:59;96918.19;;;11.79;71.07
68197;BME280;55019;49.382;11.358;2023-05-09T04:44:25;96923.00;;;11.98;71.72
68197;BME280;55019;49.382;11.358;2023-05-09T04:46:51;96920.78;;;12.03;72.39
68197;BME280;55019;49.382;11.358;2023-05-09T04:49:19;96915.25;;;12.06;72.30
68197;BME280;55019;49.382;11.358;2023-05-09T04:51:45;96909.25;;;12.14;70.96
68197;BME280;55019;49.382;11.358;2023-05-09T04:54:10;96916.50;;;12.34;72.42
68197;BME280;55019;49.382;11.358;2023-05-09T04:56:38;96921.97;;;12.47;71.40
68197;BME280;55019;49.382;11.358;2023-05-09T04:59:04;96913.88;;;12.50;71.20
68197;BME280;55019;49.382;11.358;2023-05-09T05:01:30;96916.13;;;12.45;71.12
68197;BME280;55019;49.382;11.358;2023-05-09T05:03:56;96917.31;;;12.35;71.29
68197;BME280;55019;49.382;11.358;2023-05-09T05:06:21;96914.19;;;12.47;71.18
68197;BME280;55019;49.382;11.358;2023-05-09T05:08:47;96918.63;;;12.31;70.73
68197;BME280;55019;49.382;11.358;2023-05-09T05:11:13;96908.16;;;12.63;70.03
68197;BME280;55019;49.382;11.358;2023-05-09T05:13:39;96916.44;;;12.58;69.40
68197;BME280;55019;49.382;11.358;2023-05-09T05:16:04;96918.19;;;12.66;70.81
68197;BME280;55019;49.382;11.358;2023-05-09T05:18:30;96911.03;;;12.68;69.96
68197;BME280;55019;49.382;11.358;2023-05-09T05:20:56;96912.81;;;12.75;69.23
68197;BME280;55019;49.382;11.358;2023-05-09T05:23:23;96906.75;;;12.52;69.85
68197;BME280;55019;49.382;11.358;2023-05-09T05:25:52;96900.47;;;12.77;70.16
68197;BME280;55019;49.382;11.358;2023-05-09T05:28:18;96907.09;;;12.88;70.29
68197;BME280;55019;49.382;11.358;2023-05-09T05:30:44;96910.75;;;12.63;71.09
68197;BME280;55019;49.382;11.358;2023-05-09T05:33:10;96919.75;;;12.83;70.52
68197;BME280;55019;49.382;11.358;2023-05-09T05:35:35;96918.69;;;12.61;70.75
68197;BME280;55019;49.382;11.358;2023-05-09T05:38:01;96919.53;;;13.00;70.58
68197;BME280;55019;49.382;11.358;2023-05-09T05:40:27;96919.22;;;12.95;69.32
68197;BME280;55019;49.382;11.358;2023-05-09T05:42:54;96924.06;;;13.06;69.11
68197;BME280;55019;49.382;11.358;2023-05-09T05:45:20;96918.75;;;12.37;68.98
68197;BME280;55019;49.382;11.358;2023-05-09T05:47:49;96930.03;;;12.60;69.49
68197;BME280;55019;49.382;11.358;2023-05-09T05:50:15;96928.16;;;12.30;69.49
68197;BME280;55019;49.382;11.358;2023-05-09T05:52:41;96929.75;;;12.47;70.51
68197;BME280;55019;49.382;11.358;2023-05-09T05:55:11;96928.50;;;12.27;69.16
68197;BME280;55019;49.382;11.358;2023-05-09T05:57:36;96927.16;;;12.55;69.61
68197;BME280;55019;49.382;11.358;2023-05-09T06:00:06;96919.31;;;12.71;68.48
68197;BME280;55019;49.382;11.358;2023-05-09T06:02:42;96922.00;;;12.94;68.57
68197;BME280;55019;49.382;11.358;2023-05-09T06:05:19;96923.88;;;13.07;66.51
68197;BME280;55019;49.382;11.358;2023-05-09T06:07:45;96920.69;;;13.28;65.83
68197;BME280;55019;49.382;11.358;2023-05-09T06:10:11;96912.78;;;13.21;66.51
68197;BME280;55019;49.382;11.358;2023-05-09T06:12:37;96922.47;;;12.97;64.99
68197;BME280;55019;49.382;11.358;2023-05-09T06:15:03;96910.47;;;12.96;65.88
68197;BME280;55019;49.382;11.358;2023-05-09T06:17:36;96913.28;;;13.17;65.14
68197;BME280;55019;49.382;11.358;2023-05-09T06:20:01;96909.50;;;12.97;65.00
68197;BME280;55019;49.382;11.358;2023-05-09T06:22:28;96902.59;;;12.74;65.28
68197;BME280;55019;49.382;11.358;2023-05-09T06:24:53;96901.72;;;12.97;63.98
68197;BME280;55019;49.382;11.358;2023-05-09T06:27:19;96897.84;;;13.23;64.26
68197;BME280;55019;49.382;11.358;2023-05-09T06:29:45;96895.47;;;13.14;67.57
68197;BME280;55019;49.382;11.358;2023-05-09T06:32:10;96887.94;;;13.27;66.30
68197;BME280;55019;49.382;11.358;2023-05-09T06:34:36;96892.38;;;13.41;64.45
68197;BME280;55019;49.382;11.358;2023-05-09T06:37:02;96885.16;;;13.06;64.41
68197;BME280;55019;49.382;11.358;2023-05-09T06:39:27;96891.16;;;13.74;63.82
68197;BME280;55019;49.382;11.358;2023-05-09T06:41:53;96893.63;;;13.67;61.43
68197;BME280;55019;49.382;11.358;2023-05-09T06:44:28;96875.22;;;13.77;61.94
68197;BME280;55019;49.382;11.358;2023-05-09T06:46:54;96865.88;;;13.90;61.47
68197;BME280;55019;49.382;11.358;2023-05-09T06:49:20;96871.41;;;14.02;61.03
68197;BME280;55019;49.382;11.358;2023-05-09T06:51:45;96868.91;;;13.94;60.66
68197;BME280;55019;49.382;11.358;2023-05-09T06:54:11;96863.97;;;13.84;60.14
68197;BME280;55019;49.382;11.358;2023-05-09T06:56:37;96862.94;;;13.71;62.32
68197;BME280;55019;49.382;11.358;2023-05-09T06:59:02;96856.72;;;14.17;61.53
68197;BME280;55019;49.382;11.358;2023-05-09T07:01:28;96859.31;;;14.31;60.49
68197;BME280;55019;49.382;11.358;2023-05-09T07:03:54;96859.50;;;14.58;60.62
68197;BME280;55019;49.382;11.358;2023-05-09T07:06:19;96855.28;;;14.57;58.35
68197;BME280;55019;49.382;11.358;2023-05-09T07:08:45;96844.06;;;15.07;57.48
68197;BME280;55019;49.382;11.358;2023-05-09T07:11:11;96850.03;;;14.86;57.15
68197;BME280;55019;49.382;11.358;2023-05-09T07:13:36;96844.66;;;14.73;56.91
68197;BME280;55019;49.382;11.358;2023-05-09T07:16:02;96840.84;;;14.90;55.89
68197;BME280;55019;49.382;11.358;2023-05-09T07:18:28;96844.63;;;15.23;53.75
68197;BME280;55019;49.382;11.358;2023-05-09T07:20:54;96841.19;;;15.58;53.54
68197;BME280;55019;49.382;11.358;2023-05-09T07:23:19;96841.75;;;15.33;53.26
68197;BME280;55019;49.382;11.358;2023-05-09T07:25:45;96836.22;;;15.42;53.28
68197;BME280;55019;49.382;11.358;2023-05-09T07:28:11;96838.50;;;15.73;53.97
68197;BME280;55019;49.382;11.358;2023-05-09T07:30:37;96829.06;;;15.93;53.28
68197;BME280;55019;49.382;11.358;2023-05-09T07:33:03;96835.72;;;16.01;54.29
68197;BME280;55019;49.382;11.358;2023-05-09T07:35:28;96817.41;;;15.95;51.69
68197;BME280;55019;49.382;11.358;2023-05-09T07:37:54;96822.69;;;16.63;53.17
68197;BME280;55019;49.382;11.358;2023-05-09T07:40:20;96814.06;;;16.69;51.38
68197;BME280;55019;49.382;11.358;2023-05-09T07:42:45;96827.63;;;16.98;49.54
68197;BME280;55019;49.382;11.358;2023-05-09T07:45:17;96827.13;;;16.69;50.52
68197;BME280;55019;49.382;11.358;2023-05-09T07:47:42;96813.34;;;17.01;49.19
68197;BME280;55019;49.382;11.358;2023-05-09T07:50:08;96811.25;;;16.64;49.19
68197;BME280;55019;49.382;11.358;2023-05-09T07:52:34;96805.75;;;17.06;49.75
68197;BME280;55019;49.382;11.358;2023-05-09T07:55:00;96810.41;;;17.17;47.30
68197;BME280;55019;49.382;11.358;2023-05-09T07:57:26;96812.00;;;17.18;46.85
68197;BME280;55019;49.382;11.358;2023-05-09T07:59:51;96798.28;;;16.90;49.16
68197;BME280;55019;49.382;11.358;2023-05-09T08:02:17;96791.78;;;17.78;49.35
68197;BME280;55019;49.382;11.358;2023-05-09T08:04:43;96783.56;;;17.55;45.26
68197;BME280;55019;49.382;11.358;2023-05-09T08:07:09;96794.38;;;17.45;45.97
68197;BME280;55019;49.382;11.358;2023-05-09T08:09:36;96788.75;;;18.00;47.31
68197;BME280;55019;49.382;11.358;2023-05-09T08:12:02;96778.84;;;18.85;46.89
68197;BME280;55019;49.382;11.358;2023-05-09T08:14:27;96777.75;;;18.55;42.82
68197;BME280;55019;49.382;11.358;2023-05-09T08:16:54;96767.53;;;18.91;44.36
68197;BME280;55019;49.382;11.358;2023-05-09T08:19:19;96768.94;;;19.31;45.36
68197;BME280;55019;49.382;11.358;2023-05-09T08:21:56;96767.03;;;19.07;42.68
68197;BME280;55019;49.382;11.358;2023-05-09T08:24:22;96761.56;;;18.78;42.57
68197;BME280;55019;49.382;11.358;2023-05-09T08:26:48;96767.13;;;19.56;43.89
68197;BME280;55019;49.382;11.358;2023-05-09T08:29:13;96758.88;;;19.28;42.68
68197;BME280;55019;49.382;11.358;2023-05-09T08:31:39;96752.91;;;19.08;44.55
68197;BME280;55019;49.382;11.358;2023-05-09T08:34:05;96756.25;;;19.28;40.99
68197;BME280;55019;49.382;11.358;2023-05-09T08:36:30;96747.41;;;19.96;41.14
68197;BME280;55019;49.382;11.358;2023-05-09T08:38:56;96742.03;;;20.62;42.06
68197;BME280;55019;49.382;11.358;2023-05-09T08:41:25;96739.94;;;19.26;39.39
68197;BME280;55019;49.382;11.358;2023-05-09T08:43:54;96737.25;;;20.06;43.70
68197;BME280;55019;49.382;11.358;2023-05-09T08:46:27;96734.06;;;20.87;38.58
68197;BME280;55019;49.382;11.358;2023-05-09T08:48:55;96729.88;;;20.97;37.00
68197;BME280;55019;49.382;11.358;2023-05-09T08:51:22;96722.22;;;20.48;38.55
68197;BME280;55019;49.382;11.358;2023-05-09T08:53:48;96722.19;;;20.66;38.54
68197;BME280;55019;49.382;11.358;2023-05-09T08:56:14;96730.47;;;20.99;39.31
68197;BME280;55019;49.382;11.358;2023-05-09T08:58:40;96729.19;;;20.72;36.17
68197;BME280;55019;49.382;11.358;2023-05-09T09:01:06;96722.53;;;20.88;38.06
68197;BME280;55019;49.382;11.358;2023-05-09T09:03:32;96723.19;;;21.65;37.97
68197;BME280;55019;49.382;11.358;2023-05-09T09:05:58;96713.13;;;21.85;37.27
68197;BME280;55019;49.382;11.358;2023-05-09T09:08:25;96701.19;;;22.40;35.92
68197;BME280;55019;49.382;11.358;2023-05-09T09:10:52;96694.09;;;22.96;34.21
68197;BME280;55019;49.382;11.358;2023-05-09T09:13:19;96698.31;;;22.30;34.31
68197;BME280;55019;49.382;11.358;2023-05-09T09:15:47;96690.31;;;22.76;33.78
68197;BME280;55019;49.382;11.358;2023-05-09T09:18:22;96686.31;;;23.18;31.07
68197;BME280;55019;49.382;11.358;2023-05-09T09:20:55;96689.34;;;23.10;31.73
68197;BME280;55019;49.382;11.358;2023-05-09T09:23:24;96687.50;;;22.82;32.57
68197;BME280;55019;49.382;11.358;2023-05-09T09:26:01;96685.78;;;23.48;32.40
68197;BME280;55019;49.382;11.358;2023-05-09T09:28:27;96680.50;;;23.81;30.67
68197;BME280;55019;49.382;11.358;2023-05-09T09:30:53;96687.91;;;23.51;30.88
68197;BME280;55019;49.382;11.358;2023-05-09T09:33:23;96689.88;;;23.94;30.88
68197;BME280;55019;49.382;11.358;2023-05-09T09:35:50;96682.50;;;24.34;31.17
68197;BME280;55019;49.382;11.358;2023-05-09T09:38:17;96678.63;;;23.65;30.76
68197;BME280;55019;49.382;11.358;2023-05-09T09:40:55;96678.72;;;22.77;28.72
68197;BME280;55019;49.382;11.358;2023-05-09T09:43:29;96678.59;;;23.00;29.52
68197;BME280;55019;49.382;11.358;2023-05-09T09:45:54;96670.31;;;23.08;30.70
68197;BME280;55019;49.382;11.358;2023-05-09T09:48:25;96671.59;;;21.41;31.46
68197;BME280;55019;49.382;11.358;2023-05-09T09:50:54;96668.00;;;22.16;30.76
68197;BME280;55019;49.382;11.358;2023-05-09T09:53:21;96668.41;;;21.62;31.79
68197;BME280;55019;49.382;11.358;2023-05-09T09:55:49;96666.03;;;22.46;29.37
68197;BME280;55019;49.382;11.358;2023-05-09T09:58:19;96655.28;;;22.36;29.08
68197;BME280;55019;49.382;11.358;2023-05-09T10:01:11;96660.56;;;22.13;33.70
68197;BME280;55019;49.382;11.358;2023-05-09T10:03:42;96659.03;;;22.68;33.87
68197;BME280;55019;49.382;11.358;2023-05-09T10:06:13;96644.06;;;23.29;30.21
68197;BME280;55019;49.382;11.358;2023-05-09T10:08:39;96640.13;;;24.24;34.27
68197;BME280;55019;49.382;11.358;2023-05-09T10:11:05;96630.91;;;23.83;30.50
68197;BME280;55019;49.382;11.358;2023-05-09T10:13:36;96618.63;;;23.07;30.09
68197;BME280;55019;49.382;11.358;2023-05-09T10:16:03;96624.56;;;23.14;31.81
68197;BME280;55019;49.382;11.358;2023-05-09T10:18:30;96623.84;;;23.35;31.59
68197;BME280;55019;49.382;11.358;2023-05-09T10:20:57;96613.72;;;23.27;28.70
68197;BME280;55019;49.382;11.358;2023-05-09T10:23:29;96608.13;;;23.40;30.53
68197;BME280;55019;49.382;11.358;2023-05-09T10:26:22;96615.81;;;24.00;33.03
68197;BME280;55019;49.382;11.358;2023-05-09T10:28:56;96612.34;;;24.64;28.83
68197;BME280;55019;49.382;11.358;2023-05-09T10:31:27;96596.91;;;24.30;32.45
68197;BME280;55019;49.382;11.358;2023-05-09T10:33:53;96599.00;;;24.28;26.33
68197;BME280;55019;49.382;11.358;2023-05-09T10:36:21;96591.34;;;23.13;32.03
68197;BME280;55019;49.382;11.358;2023-05-09T10:38:52;96582.28;;;23.09;30.02
68197;BME280;55019;49.382;11.358;2023-05-09T10:41:18;96586.84;;;24.27;32.07
68197;BME280;55019;49.382;11.358;2023-05-09T10:43:46;96569.84;;;24.66;28.75
68197;BME280;55019;49.382;11.358;2023-05-09T10:46:12;96566.66;;;23.94;29.84
68197;BME280;55019;49.382;11.358;2023-05-09T10:48:39;96561.78;;;24.29;27.94
68197;BME280;55019;49.382;11.358;2023-05-09T10:51:06;96552.88;;;23.49;27.14
68197;BME280;55019;49.382;11.358;2023-05-09T10:53:49;96553.31;;;22.31;31.36
68197;BME280;55019;49.382;11.358;2023-05-09T10:58:47;96543.84;;;24.53;26.43
68197;BME280;55019;49.382;11.358;2023-05-09T11:01:13;96548.56;;;24.03;25.56
68197;BME280;55019;49.382;11.358;2023-05-09T11:06:49;96545.06;;;23.97;24.11
68197;BME280;55019;49.382;11.358;2023-05-09T11:09:29;96536.94;;;23.23;24.61
68197;BME280;55019;49.382;11.358;2023-05-09T11:14:45;96530.47;;;24.69;27.54
68197;BME280;55019;49.382;11.358;2023-05-09T11:17:13;96523.78;;;25.24;25.77
68197;BME280;55019;49.382;11.358;2023-05-09T11:24:44;96511.94;;;24.11;20.89
68197;BME280;55019;49.382;11.358;2023-05-09T11:27:23;96492.47;;;25.58;24.47
68197;BME280;55019;49.382;11.358;2023-05-09T11:29:57;96489.47;;;24.98;19.85
68197;BME280;55019;49.382;11.358;2023-05-09T11:32:29;96492.16;;;23.45;21.92
68197;BME280;55019;49.382;11.358;2023-05-09T11:37:50;96483.38;;;23.39;22.50
68197;BME280;55019;49.382;11.358;2023-05-09T11:40:19;96479.97;;;23.60;20.46
68197;BME280;55019;49.382;11.358;2023-05-09T11:42:49;96472.06;;;23.81;21.00
68197;BME280;55019;49.382;11.358;2023-05-09T11:45:18;96459.25;;;22.93;22.55
68197;BME280;55019;49.382;11.358;2023-05-09T11:47:45;96464.47;;;22.55;23.14
68197;BME280;55019;49.382;11.358;2023-05-09T11:50:12;96468.66;;;23.43;24.41
68197;BME280;55019;49.382;11.358;2023-05-09T11:52:38;96465.81;;;24.45;22.17
68197;BME280;55019;49.382;11.358;2023-05-09T11:55:09;96458.31;;;25.46;21.33
68197;BME280;55019;49.382;11.358;2023-05-09T11:57:43;96457.41;;;24.85;21.70
68197;BME280;55019;49.382;11.358;2023-05-09T12:00:09;96452.41;;;25.91;21.22
68197;BME280;55019;49.382;11.358;2023-05-09T12:02:36;96452.50;;;26.51;20.85
68197;BME280;55019;49.382;11.358;2023-05-09T12:05:05;96437.66;;;26.84;23.14
68197;BME280;55019;49.382;11.358;2023-05-09T12:07:33;96439.16;;;25.86;22.59
68197;BME280;55019;49.382;11.358;2023-05-09T12:09:58;96443.22;;;24.59;20.45
68197;BME280;55019;49.382;11.358;2023-05-09T12:12:27;96439.91;;;24.42;20.31
68197;BME280;55019;49.382;11.358;2023-05-09T12:14:52;96436.53;;;23.46;19.63
68197;BME280;55019;49.382;11.358;2023-05-09T12:17:18;96434.03;;;23.35;20.83
68197;BME280;55019;49.382;11.358;2023-05-09T12:19:44;96423.69;;;24.29;20.35
68197;BME280;55019;49.382;11.358;2023-05-09T12:22:09;96413.41;;;24.01;21.96
68197;BME280;55019;49.382;11.358;2023-05-09T12:24:35;96415.59;;;24.40;20.60
68197;BME280;55019;49.382;11.358;2023-05-09T12:27:02;96416.97;;;23.21;21.39
68197;BME280;55019;49.382;11.358;2023-05-09T12:29:29;96408.25;;;22.82;21.89
68197;BME280;55019;49.382;11.358;2023-05-09T12:31:56;96409.09;;;22.33;21.27
68197;BME280;55019;49.382;11.358;2023-05-09T12:34:22;96404.06;;;22.65;21.43
68197;BME280;55019;49.382;11.358;2023-05-09T12:36:48;96401.72;;;22.85;22.23
68197;BME280;55019;49.382;11.358;2023-05-09T12:39:18;96400.44;;;23.09;21.28
68197;BME280;55019;49.382;11.358;2023-05-09T12:41:50;96396.63;;;23.38;18.97
68197;BME280;55019;49.382;11.358;2023-05-09T12:44:23;96381.94;;;23.04;20.88
68197;BME280;55019;49.382;11.358;2023-05-09T12:47:01;96388.41;;;23.13;22.03
68197;BME280;55019;49.382;11.358;2023-05-09T12:49:28;96388.09;;;22.71;21.41
68197;BME280;55019;49.382;11.358;2023-05-09T12:51:56;96379.91;;;22.35;20.10
68197;BME280;55019;49.382;11.358;2023-05-09T12:54:23;96378.03;;;22.85;21.77
68197;BME280;55019;49.382;11.358;2023-05-09T12:56:50;96371.47;;;23.09;20.99
68197;BME280;55019;49.382;11.358;2023-05-09T12:59:25;96374.56;;;22.84;20.29
68197;BME280;55019;49.382;11.358;2023-05-09T13:01:56;96376.06;;;22.59;22.38
68197;BME280;55019;49.382;11.358;2023-05-09T13:04:24;96373.59;;;22.90;21.93
68197;BME280;55019;49.382;11.358;2023-05-09T13:06:54;96370.81;;;23.18;21.34
68197;BME280;55019;49.382;11.358;2023-05-09T13:09:22;96370.66;;;23.25;21.33
68197;BME280;55019;49.382;11.358;2023-05-09T13:11:49;96360.78;;;22.23;22.02
68197;BME280;55019;49.382;11.358;2023-05-09T13:14:19;96359.44;;;22.37;21.60
68197;BME280;55019;49.382;11.358;2023-05-09T13:16:46;96353.44;;;22.41;21.17
68197;BME280;55019;49.382;11.358;2023-05-09T13:19:12;96344.34;;;22.49;21.27